Time;durP1;ratioP1;P1;durP2;ratioP2;P2;SDS_P1;SDS_P2;PMS_P1;PMS_P2;Temp;Humidity;BMP_temperature;BMP_pressure;BME280_temperature;BME280_humidity;BME280_pressure;Samples;Min_cycle;Max_cycle;Signal;HPM_P1;HPM_P2
2022/06/18 00:01:51;;;;;;;1.60;0.75;;;19.60;61.60;;;;;;5052304;28;20056;-67
2022/06/18 00:04:21;;;;;;;2.67;1.20;;;19.60;61.70;;;;;;5055641;28;20040;-68
2022/06/18 00:06:51;;;;;;;2.20;0.95;;;19.60;61.80;;;;;;5056066;28;20132;-74
2022/06/18 00:09:21;;;;;;;3.92;1.05;;;19.60;61.80;;;;;;5056946;28;20511;-73
2022/06/18 00:14:33;;;;;;;2.20;0.98;;;19.60;61.80;;;;;;5055809;28;20052;-71
2022/06/18 00:17:02;;;;;;;1.38;0.88;;;19.60;61.70;;;;;;5058876;28;20048;-71
2022/06/18 00:19:29;;;;;;;2.63;1.02;;;19.60;61.60;;;;;;5056715;28;20095;-72
2022/06/18 00:21:56;;;;;;;3.00;1.10;;;19.60;61.40;;;;;;5057966;28;20045;-72
2022/06/18 00:24:24;;;;;;;3.00;1.00;;;19.60;61.00;;;;;;5055816;28;20122;-67
2022/06/18 00:26:51;;;;;;;2.88;0.90;;;19.50;60.70;;;;;;5058705;28;20127;-71
2022/06/18 00:29:19;;;;;;;2.20;1.08;;;19.50;60.70;;;;;;5058396;28;20047;-71
2022/06/18 00:31:46;;;;;;;1.65;0.80;;;19.40;60.90;;;;;;5060426;28;20052;-67
2022/06/18 00:34:14;;;;;;;1.92;0.90;;;19.30;61.20;;;;;;5057046;28;20054;-69
2022/06/18 00:36:48;;;;;;;1.50;0.75;;;19.30;61.30;;;;;;5072684;28;20059;-72
2022/06/18 00:39:17;;;;;;;1.27;0.70;;;19.20;61.40;;;;;;5059147;28;20044;-75
2022/06/18 00:41:51;;;;;;;2.45;0.80;;;19.20;61.60;;;;;;5057651;28;20562;-75
2022/06/18 00:44:29;;;;;;;2.80;0.70;;;19.10;61.80;;;;;;5057800;28;20036;-75
2022/06/18 00:47:08;;;;;;;1.25;0.63;;;19.10;62.00;;;;;;5056227;28;20404;-71
2022/06/18 00:49:43;;;;;;;1.88;1.00;;;19.00;62.20;;;;;;5058104;28;20084;-77
2022/06/18 00:52:17;;;;;;;3.17;1.13;;;19.00;62.30;;;;;;5057553;28;20045;-71
2022/06/18 00:54:52;;;;;;;1.77;1.00;;;19.00;62.50;;;;;;5056505;28;20056;-68
2022/06/18 00:57:28;;;;;;;2.45;1.05;;;19.00;62.80;;;;;;5055523;28;20040;-72
2022/06/18 01:00:03;;;;;;;2.38;1.02;;;18.90;62.70;;;;;;5058265;28;20048;-71
2022/06/18 01:02:35;;;;;;;3.15;1.00;;;18.90;62.80;;;;;;5058885;28;20452;-69
2022/06/18 01:05:02;;;;;;;3.30;0.85;;;18.90;63.20;;;;;;5055742;28;20421;-72
2022/06/18 01:07:33;;;;;;;1.23;0.80;;;18.80;63.50;;;;;;5054231;28;20423;-72
2022/06/18 01:10:02;;;;;;;2.53;0.98;;;18.80;63.80;;;;;;5058850;28;20515;-71
2022/06/18 01:12:31;;;;;;;2.88;0.88;;;18.80;63.90;;;;;;5036957;28;20044;-76
2022/06/18 01:15:05;;;;;;;1.73;0.98;;;18.80;64.20;;;;;;5054791;28;20465;-72
2022/06/18 01:17:37;;;;;;;2.63;0.98;;;18.80;64.30;;;;;;5041338;28;20087;-69
2022/06/18 01:20:10;;;;;;;2.65;1.10;;;18.70;64.60;;;;;;5054173;28;20411;-76
2022/06/18 01:22:47;;;;;;;1.70;0.82;;;18.70;64.70;;;;;;5053014;28;20111;-70
2022/06/18 01:25:16;;;;;;;3.72;1.83;;;18.60;64.70;;;;;;5057818;28;20492;-71
2022/06/18 01:27:47;;;;;;;2.80;1.08;;;18.60;64.70;;;;;;5055433;28;20153;-72
2022/06/18 01:30:25;;;;;;;2.15;0.85;;;18.60;64.80;;;;;;5049439;28;20048;-71
2022/06/18 01:32:55;;;;;;;3.17;0.98;;;18.60;64.70;;;;;;5054998;28;20522;-69
2022/06/18 01:35:26;;;;;;;1.73;0.80;;;18.60;64.70;;;;;;5054761;28;20124;-69
2022/06/18 01:38:06;;;;;;;1.98;1.00;;;18.60;64.60;;;;;;5051725;28;20044;-71
2022/06/18 01:40:40;;;;;;;2.40;1.15;;;18.50;64.80;;;;;;5037766;28;20057;-75
2022/06/18 01:43:13;;;;;;;3.13;0.80;;;18.40;64.80;;;;;;5054064;28;20128;-70
2022/06/18 01:45:42;;;;;;;2.03;0.85;;;18.30;64.90;;;;;;5054649;28;20090;-69
2022/06/18 01:48:16;;;;;;;1.92;1.27;;;18.40;64.90;;;;;;5037615;28;20045;-71
2022/06/18 01:50:47;;;;;;;1.48;0.77;;;18.30;65.10;;;;;;5070366;28;20471;-76
2022/06/18 01:53:19;;;;;;;2.45;1.13;;;18.30;65.30;;;;;;5055056;28;20091;-76
2022/06/18 01:55:52;;;;;;;2.35;1.00;;;18.20;65.40;;;;;;5053114;28;20076;-71
2022/06/18 01:58:23;;;;;;;2.47;0.95;;;18.20;65.40;;;;;;5069972;28;20077;-73
2022/06/18 02:00:56;;;;;;;4.20;1.02;;;18.20;65.40;;;;;;5049882;28;20051;-68
2022/06/18 02:03:24;;;;;;;1.63;0.93;;;18.20;65.60;;;;;;5070377;28;20128;-75
2022/06/18 02:05:51;;;;;;;1.48;0.95;;;18.20;65.80;;;;;;5052681;28;20136;-72
2022/06/18 02:08:20;;;;;;;1.30;0.80;;;18.20;65.80;;;;;;5056210;28;20516;-72
2022/06/18 02:10:53;;;;;;;4.68;1.15;;;18.10;65.70;;;;;;5056360;28;20048;-71
2022/06/18 02:13:24;;;;;;;2.80;0.93;;;18.10;65.90;;;;;;5056975;28;20076;-75
2022/06/18 02:15:56;;;;;;;2.03;1.17;;;18.10;65.90;;;;;;5057250;28;20068;-72
2022/06/18 02:18:24;;;;;;;3.57;1.10;;;18.10;66.10;;;;;;5057801;28;20045;-71
2022/06/18 02:20:55;;;;;;;3.40;1.00;;;18.10;66.10;;;;;;5058568;28;20471;-76
2022/06/18 02:23:23;;;;;;;3.75;1.30;;;18.00;66.20;;;;;;5057792;28;20416;-72
2022/06/18 02:25:52;;;;;;;2.60;1.00;;;18.00;66.30;;;;;;5056377;28;20063;-77
2022/06/18 02:28:23;;;;;;;2.92;0.93;;;18.00;66.20;;;;;;5058161;28;20168;-71
2022/06/18 02:30:53;;;;;;;3.60;1.10;;;18.00;66.40;;;;;;5057469;27;20413;-70
2022/06/18 02:33:30;;;;;;;1.97;1.10;;;18.00;66.50;;;;;;5057284;28;20172;-73
2022/06/18 02:36:02;;;;;;;1.63;1.07;;;17.90;66.60;;;;;;5061062;28;20117;-71
2022/06/18 02:38:31;;;;;;;2.95;1.15;;;17.90;66.80;;;;;;5061754;28;20457;-69
2022/06/18 02:41:01;;;;;;;2.42;1.00;;;17.90;66.80;;;;;;5078045;28;20037;-72
2022/06/18 02:43:29;;;;;;;2.95;1.30;;;17.90;66.80;;;;;;5059246;28;20049;-70
2022/06/18 02:45:57;;;;;;;2.25;1.05;;;17.80;66.80;;;;;;5056798;28;20053;-68
2022/06/18 02:48:27;;;;;;;1.77;0.95;;;17.80;66.80;;;;;;5045003;28;20040;-68
2022/06/18 02:50:55;;;;;;;;;;;17.80;66.90;;;;;;5058521;28;20059;-77
2022/06/18 02:53:22;;;;;;;2.40;1.13;;;17.80;66.90;;;;;;5060044;28;20003;-71
2022/06/18 02:55:52;;;;;;;2.15;0.90;;;17.70;66.90;;;;;;5059186;28;20045;-68
2022/06/18 02:58:24;;;;;;;2.67;1.00;;;17.70;66.90;;;;;;5057063;28;20045;-70
2022/06/18 03:00:53;;;;;;;1.90;0.85;;;17.70;67.00;;;;;;5070961;28;20599;-71
2022/06/18 03:03:26;;;;;;;2.53;1.30;;;17.60;67.10;;;;;;5050704;28;20075;-68
2022/06/18 03:05:54;;;;;;;2.70;1.20;;;17.60;67.00;;;;;;5058946;28;20395;-71
2022/06/18 03:08:21;;;;;;;1.38;0.80;;;17.60;67.10;;;;;;5056802;28;20045;-72
2022/06/18 03:13:38;;;;;;;1.17;0.80;;;17.50;67.40;;;;;;5055174;28;20036;-67
2022/06/18 03:16:08;;;;;;;2.55;0.93;;;17.50;67.40;;;;;;5054522;28;20041;-70
2022/06/18 03:18:38;;;;;;;1.55;0.95;;;17.50;67.50;;;;;;5055486;28;20037;-67
2022/06/18 03:21:15;;;;;;;1.75;0.88;;;17.40;67.80;;;;;;5055251;28;20071;-70
2022/06/18 03:23:42;;;;;;;2.80;1.15;;;17.40;67.90;;;;;;5054143;28;20102;-71
2022/06/18 03:26:10;;;;;;;2.03;0.98;;;17.40;68.20;;;;;;5059127;28;20060;-71
2022/06/18 03:28:40;;;;;;;2.00;0.98;;;17.40;68.40;;;;;;5058248;28;20053;-76
2022/06/18 03:31:07;;;;;;;1.92;1.02;;;17.30;68.50;;;;;;5052822;28;20085;-71
2022/06/18 03:33:38;;;;;;;1.95;1.20;;;17.30;68.50;;;;;;5054672;28;20512;-75
2022/06/18 03:36:07;;;;;;;2.80;1.02;;;17.30;68.50;;;;;;5053750;28;20052;-71
2022/06/18 03:38:35;;;;;;;1.85;1.10;;;17.30;68.50;;;;;;5054183;28;20056;-75
2022/06/18 03:41:02;;;;;;;2.10;1.00;;;17.30;68.50;;;;;;5046459;28;20044;-68
2022/06/18 03:43:30;;;;;;;2.38;1.08;;;17.30;68.70;;;;;;5045541;28;20592;-75
2022/06/18 03:46:05;;;;;;;1.83;0.93;;;17.30;68.60;;;;;;5064070;28;20064;-70
2022/06/18 03:48:41;;;;;;;8.98;0.93;;;17.30;68.60;;;;;;5060006;28;20047;-68
2022/06/18 03:51:09;;;;;;;1.67;0.80;;;17.30;68.40;;;;;;5054246;28;20036;-76
2022/06/18 03:53:37;;;;;;;3.13;1.40;;;17.30;68.20;;;;;;5053643;28;20049;-76
2022/06/18 03:56:04;;;;;;;4.25;1.00;;;17.30;68.40;;;;;;5065034;28;20480;-70
2022/06/18 03:58:37;;;;;;;3.30;1.20;;;17.30;68.30;;;;;;5035968;28;20076;-75
2022/06/18 04:01:07;;;;;;;2.17;0.82;;;17.30;68.40;;;;;;5051890;28;20041;-71
2022/06/18 04:03:36;;;;;;;2.05;1.08;;;17.30;68.40;;;;;;5037125;28;20131;-70
2022/06/18 04:06:04;;;;;;;2.50;1.00;;;17.30;68.50;;;;;;5074904;28;20098;-71
2022/06/18 04:08:31;;;;;;;2.03;0.90;;;17.30;68.60;;;;;;5042927;28;20060;-70
2022/06/18 04:11:02;;;;;;;1.98;1.05;;;17.30;68.60;;;;;;5029506;28;20459;-71
2022/06/18 04:13:30;;;;;;;4.15;1.27;;;17.30;68.40;;;;;;5053834;28;20041;-67
2022/06/18 04:16:14;;;;;;;1.63;0.70;;;17.30;68.50;;;;;;5057301;28;20183;-68
2022/06/18 04:18:41;;;;;;;3.58;0.90;;;17.30;68.60;;;;;;5070875;28;20052;-70
2022/06/18 04:21:12;;;;;;;3.00;1.10;;;17.30;68.70;;;;;;5054386;28;20047;-71
2022/06/18 04:23:41;;;;;;;2.22;1.08;;;17.30;68.80;;;;;;5057750;28;20052;-70
2022/06/18 04:26:09;;;;;;;1.60;1.10;;;17.30;68.90;;;;;;5056433;28;20500;-70
2022/06/18 04:28:38;;;;;;;2.00;1.13;;;17.30;68.70;;;;;;5065746;28;20079;-76
2022/06/18 04:31:09;;;;;;;3.30;1.10;;;17.30;68.70;;;;;;5056674;28;20588;-68
2022/06/18 04:33:39;;;;;;;5.32;1.13;;;17.30;68.70;;;;;;5055407;28;20053;-77
2022/06/18 04:36:32;;;;;;;1.90;0.80;;;17.30;68.90;;;;;;5038378;28;20049;-71
2022/06/18 04:39:02;;;;;;;2.78;1.23;;;17.30;69.00;;;;;;5040469;28;20489;-69
2022/06/18 04:41:41;;;;;;;2.67;1.05;;;17.30;69.00;;;;;;5056021;28;20057;-71
2022/06/18 04:44:16;;;;;;;2.45;1.17;;;17.40;69.00;;;;;;5051750;28;20501;-78
2022/06/18 04:46:49;;;;;;;2.35;1.10;;;17.40;69.00;;;;;;5053392;28;20489;-71
2022/06/18 04:49:18;;;;;;;3.60;1.02;;;17.40;68.80;;;;;;5052491;28;20037;-71
2022/06/18 04:51:47;;;;;;;3.10;1.03;;;17.40;68.60;;;;;;5037191;28;20583;-70
2022/06/18 04:54:17;;;;;;;4.80;1.02;;;17.50;68.20;;;;;;5039505;28;20057;-72
2022/06/18 04:56:44;;;;;;;1.95;1.17;;;17.50;68.10;;;;;;5049339;28;20167;-70
2022/06/18 04:59:13;;;;;;;3.53;1.30;;;17.60;68.10;;;;;;5042273;28;20416;-70
2022/06/18 05:01:41;;;;;;;2.45;1.20;;;17.50;68.20;;;;;;5035182;28;20050;-71
2022/06/18 05:04:24;;;;;;;2.65;1.23;;;17.60;68.40;;;;;;5050257;28;20496;-68
2022/06/18 05:07:14;;;;;;;2.20;1.02;;;17.60;68.40;;;;;;5011214;28;20061;-71
2022/06/18 05:10:11;;;;;;;2.83;1.20;;;17.60;68.20;;;;;;5041158;28;20044;-70
2022/06/18 05:12:52;;;;;;;1.73;0.93;;;17.60;68.00;;;;;;5041951;28;20040;-71
2022/06/18 05:15:41;;;;;;;4.43;1.48;;;17.70;67.90;;;;;;5044156;28;20049;-69
2022/06/18 05:18:11;;;;;;;3.05;1.02;;;17.80;67.70;;;;;;5044584;28;20041;-72
2022/06/18 05:20:40;;;;;;;1.90;0.90;;;17.80;67.50;;;;;;5041168;28;20056;-71
2022/06/18 05:23:12;;;;;;;2.20;1.20;;;17.90;67.20;;;;;;5043524;28;20044;-73
2022/06/18 05:25:39;;;;;;;2.83;1.00;;;17.90;67.10;;;;;;5040371;28;20055;-76
2022/06/18 05:28:06;;;;;;;2.10;1.00;;;18.00;67.10;;;;;;5047279;28;20059;-71
2022/06/18 05:30:35;;;;;;;2.38;1.30;;;18.00;67.20;;;;;;5058987;28;20077;-69
2022/06/18 05:33:04;;;;;;;1.88;1.13;;;18.00;67.10;;;;;;5044101;28;20660;-70
2022/06/18 05:35:35;;;;;;;3.90;1.20;;;18.00;67.20;;;;;;5029468;28;20048;-72
2022/06/18 05:38:04;;;;;;;3.03;0.95;;;18.00;67.00;;;;;;5047549;28;20130;-71
2022/06/18 05:40:31;;;;;;;3.22;1.30;;;18.00;67.00;;;;;;5059704;28;20408;-69
2022/06/18 05:42:58;;;;;;;2.45;1.20;;;18.10;67.00;;;;;;5043262;28;20559;-70
2022/06/18 05:45:25;;;;;;;2.03;0.90;;;18.20;66.80;;;;;;5047335;28;20041;-77
2022/06/18 05:47:52;;;;;;;2.38;1.20;;;18.20;66.70;;;;;;5046119;28;20137;-72
2022/06/18 05:50:20;;;;;;;4.70;1.15;;;18.20;66.70;;;;;;5043676;28;20107;-71
2022/06/18 05:52:49;;;;;;;1.77;1.00;;;18.30;66.70;;;;;;5044831;28;20174;-76
2022/06/18 05:55:31;;;;;;;2.40;1.10;;;18.30;66.60;;;;;;5079788;28;20501;-71
2022/06/18 05:58:11;;;;;;;2.58;1.20;;;18.40;66.50;;;;;;5049838;28;20140;-68
2022/06/18 06:00:44;;;;;;;3.60;1.08;;;18.40;66.30;;;;;;5047364;28;20044;-72
2022/06/18 06:03:12;;;;;;;2.15;0.95;;;18.50;66.30;;;;;;5058127;28;20047;-70
2022/06/18 06:05:39;;;;;;;3.10;1.02;;;18.50;66.10;;;;;;5057281;28;20428;-76
2022/06/18 06:08:08;;;;;;;2.70;1.10;;;18.60;66.00;;;;;;5041168;28;20044;-75
2022/06/18 06:13:25;;;;;;;2.33;0.80;;;18.60;66.00;;;;;;5051014;28;20048;-69
2022/06/18 06:15:53;;;;;;;2.15;1.30;;;18.70;66.00;;;;;;5051080;28;20790;-71
2022/06/18 06:18:22;;;;;;;2.63;1.67;;;18.80;65.90;;;;;;5051773;28;20052;-67
2022/06/18 06:20:51;;;;;;;1.42;0.90;;;18.90;65.80;;;;;;5045218;28;20536;-70
2022/06/18 06:23:19;;;;;;;3.55;1.27;;;18.90;65.60;;;;;;5046672;28;20056;-67
2022/06/18 06:25:49;;;;;;;2.65;1.02;;;19.00;65.40;;;;;;5051515;28;20049;-69
2022/06/18 06:28:18;;;;;;;3.85;0.98;;;19.10;65.30;;;;;;5047888;28;20048;-69
2022/06/18 06:30:45;;;;;;;2.45;1.00;;;19.10;65.20;;;;;;5053597;28;20067;-71
2022/06/18 06:33:12;;;;;;;2.17;1.13;;;19.20;64.90;;;;;;5056661;28;20500;-71
2022/06/18 06:35:39;;;;;;;2.33;1.33;;;19.30;64.60;;;;;;5043626;28;20045;-73
2022/06/18 06:38:07;;;;;;;1.88;1.05;;;19.40;64.50;;;;;;5048978;28;20046;-71
2022/06/18 06:40:36;;;;;;;3.63;1.30;;;19.50;64.50;;;;;;5046551;28;20063;-68
2022/06/18 06:43:07;;;;;;;2.60;1.40;;;19.60;64.50;;;;;;5044317;28;20112;-72
2022/06/18 06:45:35;;;;;;;4.65;2.00;;;19.70;64.00;;;;;;5041737;28;20606;-71
2022/06/18 06:48:02;;;;;;;4.88;1.77;;;19.80;63.90;;;;;;5043144;28;20113;-72
2022/06/18 06:50:31;;;;;;;5.45;1.85;;;20.00;63.60;;;;;;5046527;28;20128;-71
2022/06/18 06:52:58;;;;;;;5.25;1.90;;;20.10;63.30;;;;;;5048843;28;20397;-76
2022/06/18 06:58:16;;;;;;;3.67;1.38;;;20.30;63.00;;;;;;5056309;28;20045;-68
2022/06/18 07:00:47;;;;;;;2.60;1.52;;;20.40;62.60;;;;;;5030193;28;20052;-72
2022/06/18 07:03:17;;;;;;;4.35;1.38;;;20.60;62.60;;;;;;5045352;28;20059;-70
2022/06/18 07:05:44;;;;;;;3.78;1.52;;;20.70;62.50;;;;;;5044512;28;20140;-74
2022/06/18 07:08:12;;;;;;;2.70;1.20;;;20.80;61.60;;;;;;5055654;28;20052;-74
2022/06/18 07:10:40;;;;;;;2.97;1.50;;;21.00;61.50;;;;;;5044506;28;20060;-71
2022/06/18 07:13:07;;;;;;;6.03;1.40;;;21.10;61.10;;;;;;5054671;28;20044;-71
2022/06/18 07:15:36;;;;;;;4.25;1.38;;;21.20;61.80;;;;;;5048556;28;20057;-72
2022/06/18 07:18:04;;;;;;;3.05;1.00;;;21.40;61.10;;;;;;5045127;28;20055;-70
2022/06/18 07:20:31;;;;;;;2.25;1.17;;;21.60;61.40;;;;;;5051994;28;20184;-71
2022/06/18 07:22:59;;;;;;;2.65;0.95;;;21.70;61.70;;;;;;5048604;28;20053;-69
2022/06/18 07:25:26;;;;;;;3.55;1.33;;;21.90;61.50;;;;;;5045647;28;20115;-70
2022/06/18 07:27:54;;;;;;;2.80;1.10;;;22.00;61.00;;;;;;5044660;28;20061;-71
2022/06/18 07:30:21;;;;;;;4.88;1.23;;;22.10;61.10;;;;;;5050935;28;20044;-76
2022/06/18 07:32:50;;;;;;;5.88;1.63;;;22.30;61.20;;;;;;5049288;28;20041;-75
2022/06/18 07:35:19;;;;;;;4.65;1.73;;;22.40;61.00;;;;;;5049321;28;20045;-70
2022/06/18 07:37:47;;;;;;;4.90;1.60;;;22.60;60.50;;;;;;5048429;28;20047;-72
2022/06/18 07:40:15;;;;;;;4.82;1.83;;;22.60;59.90;;;;;;5043884;28;20501;-71
2022/06/18 07:42:43;;;;;;;3.83;1.60;;;22.80;59.90;;;;;;5038757;28;20053;-71
2022/06/18 07:45:16;;;;;;;3.22;1.50;;;23.00;59.90;;;;;;5044434;28;20496;-77
2022/06/18 07:47:45;;;;;;;2.78;1.20;;;23.10;59.60;;;;;;5034837;28;20045;-69
2022/06/18 07:50:13;;;;;;;2.30;1.10;;;23.30;58.90;;;;;;5045666;28;20055;-76
2022/06/18 07:52:41;;;;;;;2.40;0.90;;;23.40;56.60;;;;;;5054600;28;20143;-71
2022/06/18 07:55:11;;;;;;;5.13;1.10;;;23.50;56.80;;;;;;5061422;28;20043;-69
2022/06/18 07:57:38;;;;;;;3.25;1.20;;;23.60;56.70;;;;;;5045005;28;20056;-71
2022/06/18 08:00:07;;;;;;;3.20;1.08;;;23.80;56.10;;;;;;5044618;28;20362;-74
2022/06/18 08:02:42;;;;;;;2.70;1.00;;;23.90;55.80;;;;;;5049973;28;20049;-69
2022/06/18 08:05:12;;;;;;;2.63;1.02;;;24.00;54.60;;;;;;5047279;28;20691;-71
2022/06/18 08:07:40;;;;;;;1.67;1.00;;;24.10;54.60;;;;;;5047802;28;20056;-72
2022/06/18 08:10:08;;;;;;;1.60;0.80;;;24.30;53.80;;;;;;5044592;28;20049;-71
2022/06/18 08:12:36;;;;;;;1.98;0.98;;;24.40;53.20;;;;;;5040814;28;20060;-76
2022/06/18 08:15:05;;;;;;;2.95;1.10;;;24.50;52.60;;;;;;5044222;28;20053;-69
2022/06/18 08:17:32;;;;;;;2.25;1.20;;;24.60;52.40;;;;;;5045870;28;20049;-75
2022/06/18 08:19:59;;;;;;;4.50;0.95;;;24.70;51.70;;;;;;5044961;28;20049;-73
2022/06/18 08:22:26;;;;;;;2.63;1.15;;;24.90;51.60;;;;;;5043438;28;20522;-76
2022/06/18 08:24:55;;;;;;;2.15;1.00;;;25.00;50.90;;;;;;5045278;28;20053;-76
2022/06/18 08:27:22;;;;;;;5.20;1.40;;;25.10;50.90;;;;;;5038606;28;20106;-78
2022/06/18 08:29:50;;;;;;;2.75;1.42;;;25.10;50.80;;;;;;5044517;28;20049;-74
2022/06/18 08:32:17;;;;;;;4.00;1.10;;;25.20;50.90;;;;;;5042910;28;20052;-72
2022/06/18 08:34:44;;;;;;;2.13;1.05;;;25.30;50.80;;;;;;5042646;28;20055;-69
2022/06/18 08:37:12;;;;;;;1.67;0.90;;;25.40;50.10;;;;;;5048073;28;20136;-76
2022/06/18 08:39:40;;;;;;;3.33;1.13;;;25.50;50.10;;;;;;5043532;28;20143;-76
2022/06/18 08:42:31;;;;;;;1.25;0.90;;;25.60;49.20;;;;;;5043855;28;20051;-73
2022/06/18 08:45:23;;;;;;;2.13;1.02;;;25.70;48.70;;;;;;5041216;28;20045;-72
2022/06/18 08:48:14;;;;;;;2.65;1.40;;;25.70;48.60;;;;;;5045465;28;20569;-68
2022/06/18 08:50:49;;;;;;;2.72;1.20;;;25.80;48.90;;;;;;5044564;28;20577;-78
2022/06/18 08:53:33;;;;;;;1.85;1.10;;;25.80;48.50;;;;;;5043038;28;20053;-70
2022/06/18 08:56:05;;;;;;;2.20;1.05;;;25.90;48.30;;;;;;5045012;28;20056;-76
2022/06/18 08:58:37;;;;;;;3.47;0.98;;;26.00;48.00;;;;;;5047317;28;20049;-73
2022/06/18 09:01:11;;;;;;;2.03;0.80;;;26.10;47.70;;;;;;5042511;28;20068;-70
2022/06/18 09:03:52;;;;;;;2.35;0.95;;;26.10;47.40;;;;;;5046872;28;20072;-72
2022/06/18 09:06:34;;;;;;;2.75;1.30;;;26.20;47.20;;;;;;5048467;28;20037;-76
2022/06/18 09:09:08;;;;;;;3.72;1.30;;;26.30;47.10;;;;;;5047985;28;20049;-73
2022/06/18 09:11:56;;;;;;;2.03;1.17;;;26.30;47.00;;;;;;5044955;28;20615;-71
2022/06/18 09:14:33;;;;;;;2.78;1.50;;;26.30;46.80;;;;;;5046061;28;20049;-71
2022/06/18 09:17:08;;;;;;;3.42;1.80;;;26.50;46.90;;;;;;5041706;28;20085;-77
2022/06/18 09:19:37;;;;;;;3.40;1.40;;;26.50;46.50;;;;;;5044945;28;20105;-73
2022/06/18 09:22:08;;;;;;;;;;;26.60;46.50;;;;;;5044315;28;20045;-69
2022/06/18 09:24:40;;;;;;;3.95;1.67;;;26.60;46.50;;;;;;5047252;28;20499;-72
2022/06/18 09:27:11;;;;;;;4.47;1.33;;;26.70;46.80;;;;;;5042308;28;20048;-69
2022/06/18 09:29:44;;;;;;;3.33;1.60;;;26.80;46.40;;;;;;5043789;28;20042;-75
2022/06/18 09:32:16;;;;;;;4.22;1.77;;;26.90;46.40;;;;;;5049945;28;20053;-72
2022/06/18 09:34:47;;;;;;;2.55;1.30;;;27.00;45.90;;;;;;5047085;28;20492;-72
2022/06/18 09:37:21;;;;;;;2.33;1.20;;;27.00;45.50;;;;;;5043045;28;20071;-72
2022/06/18 09:39:51;;;;;;;2.55;1.55;;;27.10;45.40;;;;;;5045256;28;20136;-77
2022/06/18 09:42:24;;;;;;;4.97;1.60;;;27.20;45.30;;;;;;5043895;28;20048;-71
2022/06/18 09:45:01;;;;;;;2.90;1.42;;;27.20;44.90;;;;;;5045888;28;20055;-72
2022/06/18 09:47:35;;;;;;;2.00;1.30;;;27.20;44.70;;;;;;5042150;28;20051;-75
2022/06/18 09:50:02;;;;;;;2.33;1.33;;;27.30;45.00;;;;;;5040924;28;20497;-75
2022/06/18 09:52:34;;;;;;;1.20;0.90;;;27.30;44.90;;;;;;5047042;28;20045;-75
2022/06/18 09:55:04;;;;;;;3.33;1.42;;;27.40;44.80;;;;;;5042163;28;20067;-72
2022/06/18 09:57:34;;;;;;;2.28;1.20;;;27.50;44.50;;;;;;5051655;28;20140;-72
2022/06/18 10:00:08;;;;;;;2.90;1.25;;;27.60;44.20;;;;;;5044988;28;20048;-72
2022/06/18 10:02:44;;;;;;;4.38;1.40;;;27.60;44.10;;;;;;5047665;28;20522;-72
2022/06/18 10:08:01;;;;;;;2.45;1.20;;;27.60;43.90;;;;;;5014309;28;20506;-73
2022/06/18 10:10:29;;;;;;;2.33;1.20;;;27.60;44.00;;;;;;5042406;28;20465;-72
2022/06/18 10:12:59;;;;;;;1.92;1.15;;;27.70;44.00;;;;;;5046057;28;20494;-70
2022/06/18 10:15:29;;;;;;;3.85;1.20;;;27.80;43.70;;;;;;5042362;28;20049;-71
2022/06/18 10:18:15;;;;;;;2.30;1.15;;;27.80;43.40;;;;;;5040348;28;20056;-75
2022/06/18 10:20:47;;;;;;;3.42;1.33;;;27.80;43.30;;;;;;5046170;28;20072;-73
2022/06/18 10:23:35;;;;;;;3.70;1.05;;;27.80;43.30;;;;;;5041995;28;20132;-73
2022/06/18 10:26:13;;;;;;;2.13;1.10;;;27.90;43.10;;;;;;5040120;28;20049;-72
2022/06/18 10:28:50;;;;;;;2.25;1.10;;;27.90;43.40;;;;;;5045962;28;20503;-74
2022/06/18 10:31:31;;;;;;;2.75;1.10;;;27.90;43.20;;;;;;5050374;28;20049;-73
2022/06/18 10:34:05;;;;;;;2.78;0.95;;;28.00;43.00;;;;;;5040431;28;20052;-75
2022/06/18 10:36:37;;;;;;;1.50;0.95;;;28.10;42.90;;;;;;5045855;28;20626;-74
2022/06/18 10:39:18;;;;;;;3.92;1.10;;;28.00;43.00;;;;;;5046283;28;20064;-74
2022/06/18 10:42:02;;;;;;;4.63;1.55;;;28.20;42.70;;;;;;5039383;28;20037;-75
2022/06/18 10:44:42;;;;;;;3.50;1.10;;;28.30;42.80;;;;;;5042754;28;20131;-70
2022/06/18 10:47:16;;;;;;;3.88;1.23;;;28.30;42.70;;;;;;5043621;28;20740;-75
2022/06/18 10:49:43;;;;;;;2.55;1.23;;;28.20;42.90;;;;;;5047446;28;20045;-68
2022/06/18 10:52:18;;;;;;;1.88;1.05;;;28.20;43.00;;;;;;5048433;28;20049;-72
2022/06/18 10:54:45;;;;;;;2.55;1.02;;;28.10;43.30;;;;;;5045090;28;20053;-72
2022/06/18 10:57:23;;;;;;;3.63;1.63;;;28.20;43.40;;;;;;5049040;28;20135;-73
2022/06/18 10:59:50;;;;;;;1.10;0.90;;;28.20;43.40;;;;;;5049450;28;20136;-70
2022/06/18 11:02:26;;;;;;;3.22;1.10;;;28.20;43.40;;;;;;5045885;28;20056;-69
2022/06/18 11:04:56;;;;;;;2.40;1.00;;;28.20;43.40;;;;;;5049779;28;20520;-70
2022/06/18 11:07:26;;;;;;;3.30;1.30;;;28.30;43.30;;;;;;5049497;28;20559;-75
2022/06/18 11:09:57;;;;;;;2.30;1.20;;;28.30;43.20;;;;;;5049249;28;20055;-72
2022/06/18 11:12:27;;;;;;;1.63;0.90;;;28.30;43.20;;;;;;5050812;28;20311;-76
2022/06/18 11:14:55;;;;;;;3.65;1.60;;;28.30;43.50;;;;;;5033175;28;20051;-67
2022/06/18 11:17:28;;;;;;;3.53;1.50;;;28.30;43.50;;;;;;5053147;28;20594;-68
2022/06/18 11:20:06;;;;;;;2.13;1.20;;;28.40;43.50;;;;;;5049461;28;20056;-71
2022/06/18 11:22:33;;;;;;;2.33;1.27;;;28.40;43.40;;;;;;5049494;28;20140;-75
2022/06/18 11:25:02;;;;;;;6.55;1.52;;;28.40;43.50;;;;;;5044344;28;20516;-69
2022/06/18 11:27:31;;;;;;;2.17;1.10;;;28.30;43.70;;;;;;5032145;28;20707;-76
2022/06/18 11:29:58;;;;;;;;;;;28.30;43.70;;;;;;5042639;28;20048;-74
2022/06/18 11:32:35;;;;;;;5.80;1.30;;;28.40;43.60;;;;;;5046917;28;20347;-72
2022/06/18 11:35:07;;;;;;;3.83;1.20;;;28.50;43.50;;;;;;5044187;28;20044;-71
2022/06/18 11:37:34;;;;;;;2.10;1.20;;;28.40;43.50;;;;;;5045177;28;20049;-72
2022/06/18 11:40:16;;;;;;;2.90;1.45;;;28.50;43.40;;;;;;5048130;28;20684;-69
2022/06/18 11:42:49;;;;;;;2.45;1.63;;;28.50;43.60;;;;;;5046676;28;20061;-72
2022/06/18 11:45:27;;;;;;;4.05;1.40;;;28.50;43.50;;;;;;5048482;28;20053;-75
2022/06/18 11:48:03;;;;;;;3.15;1.40;;;28.50;43.50;;;;;;5044650;28;20575;-76
2022/06/18 11:50:35;;;;;;;2.95;1.17;;;28.50;43.70;;;;;;5026375;28;20045;-73
2022/06/18 11:53:10;;;;;;;4.50;1.20;;;28.50;43.80;;;;;;5045696;28;20045;-73
2022/06/18 11:55:39;;;;;;;2.95;1.67;;;28.50;43.60;;;;;;5044538;28;20080;-72
2022/06/18 11:58:13;;;;;;;1.92;1.20;;;28.50;43.80;;;;;;5044652;28;20579;-71
2022/06/18 12:00:47;;;;;;;3.42;1.50;;;28.50;43.70;;;;;;5042275;28;20079;-71
2022/06/18 12:03:26;;;;;;;3.33;1.67;;;28.60;43.90;;;;;;5046989;28;20053;-72
2022/06/18 12:06:01;;;;;;;4.38;1.23;;;28.60;43.80;;;;;;5044747;28;20439;-73
2022/06/18 12:08:30;;;;;;;2.72;1.35;;;28.60;43.90;;;;;;5042652;28;20512;-76
2022/06/18 12:11:03;;;;;;;3.58;1.23;;;28.60;43.70;;;;;;5045218;28;20873;-74
2022/06/18 12:13:36;;;;;;;3.40;1.27;;;28.60;43.60;;;;;;5047559;28;20741;-69
2022/06/18 12:16:09;;;;;;;5.35;1.50;;;28.60;43.70;;;;;;5045584;28;20143;-72
2022/06/18 12:18:46;;;;;;;2.10;1.23;;;28.60;43.50;;;;;;5045263;28;20048;-72
2022/06/18 12:21:38;;;;;;;4.00;1.48;;;28.70;43.80;;;;;;5050912;28;20043;-77
2022/06/18 12:24:17;;;;;;;2.53;1.50;;;28.70;43.50;;;;;;5043532;28;20060;-78
2022/06/18 12:26:50;;;;;;;2.80;1.52;;;28.80;43.70;;;;;;5045461;28;20132;-76
2022/06/18 12:29:27;;;;;;;3.10;1.35;;;28.90;43.10;;;;;;5046246;28;20704;-69
2022/06/18 12:32:03;;;;;;;6.93;1.70;;;28.80;43.10;;;;;;5045170;28;20515;-68
2022/06/18 12:34:39;;;;;;;2.17;1.02;;;28.90;43.30;;;;;;5045185;28;20071;-72
2022/06/18 12:37:17;;;;;;;7.10;1.83;;;28.90;43.20;;;;;;5041717;28;20059;-72
2022/06/18 12:39:54;;;;;;;4.60;1.65;;;28.80;43.10;;;;;;5046638;28;20484;-73
2022/06/18 12:42:27;;;;;;;3.38;1.58;;;28.80;43.10;;;;;;5048155;28;20134;-70
2022/06/18 12:45:02;;;;;;;3.47;1.45;;;28.80;43.20;;;;;;5044314;28;20516;-77
2022/06/18 12:47:36;;;;;;;3.88;1.60;;;28.80;43.20;;;;;;5055001;28;20041;-73
2022/06/18 12:50:21;;;;;;;3.45;1.30;;;28.80;43.10;;;;;;5058507;28;20044;-69
2022/06/18 12:52:59;;;;;;;5.18;1.65;;;28.80;43.50;;;;;;5048517;28;20067;-73
2022/06/18 12:55:34;;;;;;;2.47;1.27;;;28.90;43.40;;;;;;5045561;28;20088;-71
2022/06/18 12:58:14;;;;;;;4.18;1.60;;;29.00;42.80;;;;;;5047650;28;20051;-77
2022/06/18 13:00:46;;;;;;;4.78;1.98;;;28.90;43.10;;;;;;5045252;28;20049;-72
2022/06/18 13:03:32;;;;;;;3.45;1.50;;;28.90;42.80;;;;;;5025227;28;20232;-73
2022/06/18 13:06:06;;;;;;;5.78;1.83;;;28.80;42.90;;;;;;5044347;28;20045;-72
2022/06/18 13:08:46;;;;;;;6.35;1.60;;;28.90;43.40;;;;;;5039379;28;20146;-75
2022/06/18 13:11:22;;;;;;;4.00;1.48;;;29.00;42.90;;;;;;5041103;28;20040;-73
2022/06/18 13:14:01;;;;;;;4.35;1.50;;;28.90;42.90;;;;;;5046903;28;20093;-69
2022/06/18 13:16:32;;;;;;;4.70;1.67;;;29.00;43.20;;;;;;5038793;28;20551;-71
2022/06/18 13:19:07;;;;;;;3.78;1.50;;;29.00;42.90;;;;;;5045275;28;20056;-72
2022/06/18 13:21:35;;;;;;;2.85;1.70;;;29.00;42.90;;;;;;5043448;28;20083;-71
2022/06/18 13:29:47;;;;;;;6.25;1.35;;;29.00;42.80;;;;;;5041956;28;20129;-69
2022/06/18 13:32:22;;;;;;;4.10;1.55;;;29.00;43.00;;;;;;5045767;28;20057;-73